Time;durP1;ratioP1;P1;durP2;ratioP2;P2;SDS_P1;SDS_P2;PMS_P1;PMS_P2;Temp;Humidity;BMP_temperature;BMP_pressure;BME280_temperature;BME280_humidity;BME280_pressure;Samples;Min_cycle;Max_cycle;Signal;HPM_P1;HPM_P2
2022/01/14 00:01:44;;;;;;;21.97;16.40;;;7.80;98.80;;;;;;5052004;28;20408;-70
2022/01/14 00:04:10;;;;;;;24.77;15.87;;;7.60;98.80;;;;;;5051534;28;20420;-77
2022/01/14 00:06:37;;;;;;;21.03;14.87;;;7.80;99.20;;;;;;5051632;28;20424;-70
2022/01/14 00:09:08;;;;;;;28.13;15.33;;;7.90;99.40;;;;;;5034065;28;20280;-70
2022/01/14 00:11:41;;;;;;;21.00;15.13;;;7.90;99.40;;;;;;5051539;28;20403;-71
2022/01/14 00:14:19;;;;;;;19.87;14.80;;;7.90;99.40;;;;;;5051721;28;20735;-79
2022/01/14 00:16:45;;;;;;;21.80;15.00;;;7.90;99.30;;;;;;5051767;28;20520;-70
2022/01/14 00:19:12;;;;;;;23.90;15.60;;;8.00;99.40;;;;;;5051218;28;20412;-71
2022/01/14 00:21:40;;;;;;;26.60;16.40;;;8.00;99.20;;;;;;5051725;28;20412;-70
2022/01/14 00:24:10;;;;;;;22.53;14.87;;;7.90;99.10;;;;;;5051591;28;20987;-77
2022/01/14 00:32:11;;;;;;;20.60;14.50;;;7.90;99.50;;;;;;5051596;28;20412;-70
2022/01/14 00:34:37;;;;;;;21.77;14.60;;;7.90;99.70;;;;;;5051853;28;20412;-70
2022/01/14 00:37:03;;;;;;;25.00;14.40;;;8.00;99.80;;;;;;5033666;28;20416;-70
2022/01/14 00:39:29;;;;;;;24.80;15.23;;;7.80;99.60;;;;;;5050504;28;20235;-69
2022/01/14 00:41:55;;;;;;;19.83;13.17;;;7.90;99.30;;;;;;5051634;28;20992;-70
2022/01/14 00:44:21;;;;;;;21.73;14.37;;;7.60;99.00;;;;;;5051230;28;20460;-70
2022/01/14 00:46:49;;;;;;;22.07;14.97;;;7.80;99.10;;;;;;5051832;28;20528;-70
2022/01/14 00:49:16;;;;;;;25.17;13.57;;;7.80;99.20;;;;;;5051144;28;20457;-70
2022/01/14 00:51:42;;;;;;;18.60;13.73;;;7.70;99.00;;;;;;5051696;28;20412;-70
2022/01/14 00:54:09;;;;;;;20.20;13.93;;;7.80;99.00;;;;;;5051444;28;20416;-79
2022/01/14 00:59:15;;;;;;;15.83;13.33;;;7.80;99.10;;;;;;5053783;28;20414;-70
2022/01/14 01:01:52;;;;;;;20.80;14.80;;;7.80;99.00;;;;;;5037655;28;20458;-70
2022/01/14 01:04:31;;;;;;;20.23;13.90;;;7.80;98.90;;;;;;5054372;28;20803;-70
2022/01/14 01:06:59;;;;;;;19.80;13.70;;;7.80;99.00;;;;;;5055173;28;20407;-70
2022/01/14 01:09:26;;;;;;;22.03;13.37;;;7.70;99.00;;;;;;5054348;28;20430;-70
2022/01/14 01:12:25;;;;;;;20.70;13.83;;;7.80;98.80;;;;;;5054476;28;20423;-70
2022/01/14 01:15:04;;;;;;;20.67;12.80;;;7.70;99.00;;;;;;5054656;28;20429;-69
2022/01/14 01:17:29;;;;;;;20.60;14.43;;;7.80;99.30;;;;;;5036795;28;20465;-70
2022/01/14 01:19:55;;;;;;;20.17;13.27;;;7.80;99.40;;;;;;5054908;28;20410;-70
2022/01/14 01:22:21;;;;;;;21.07;14.60;;;7.80;99.40;;;;;;5054093;28;20255;-70
2022/01/14 01:24:47;;;;;;;21.60;14.83;;;7.90;99.50;;;;;;5054923;28;20181;-70
2022/01/14 01:27:15;;;;;;;18.30;12.80;;;7.80;99.50;;;;;;5054308;28;20641;-79
2022/01/14 01:32:08;;;;;;;17.73;13.30;;;7.80;99.60;;;;;;5054812;28;20900;-69
2022/01/14 01:34:35;;;;;;;18.87;13.40;;;7.80;99.60;;;;;;5036415;28;20639;-70
2022/01/14 01:37:02;;;;;;;21.33;14.97;;;7.80;99.60;;;;;;5036847;28;20510;-69
2022/01/14 01:39:30;;;;;;;21.33;13.27;;;7.80;99.50;;;;;;5054058;28;20508;-69
2022/01/14 01:42:00;;;;;;;19.80;12.30;;;7.80;99.70;;;;;;5054496;28;21791;-69
2022/01/14 01:44:26;;;;;;;18.80;14.10;;;7.50;99.70;;;;;;5066809;28;20477;-70
2022/01/14 01:46:53;;;;;;;20.20;14.40;;;7.90;99.90;;;;;;5074572;28;20431;-70
2022/01/14 01:49:22;;;;;;;19.87;13.67;;;7.90;99.90;;;;;;5071586;28;20470;-70
2022/01/14 01:51:49;;;;;;;22.60;13.70;;;7.90;99.80;;;;;;5074530;28;20468;-69
2022/01/14 01:54:17;;;;;;;17.80;13.10;;;7.50;99.70;;;;;;5073613;28;20513;-79
2022/01/14 01:56:43;;;;;;;21.53;13.00;;;7.90;99.80;;;;;;5072856;28;20760;-69
2022/01/14 01:59:11;;;;;;;20.20;12.57;;;7.90;99.80;;;;;;5074339;28;20411;-70
2022/01/14 02:01:39;;;;;;;17.40;13.50;;;7.90;99.30;;;;;;5073060;28;20514;-70
2022/01/14 02:04:05;;;;;;;15.87;13.10;;;7.80;99.00;;;;;;5074049;28;20443;-69
2022/01/14 02:06:32;;;;;;;18.40;13.40;;;7.80;99.00;;;;;;5073279;28;20399;-70
2022/01/14 02:08:58;;;;;;;20.60;13.60;;;7.80;98.70;;;;;;5072500;28;20536;-70
2022/01/14 02:11:24;;;;;;;19.57;13.80;;;7.70;98.80;;;;;;5073094;28;20431;-70
2022/01/14 02:13:52;;;;;;;22.50;14.40;;;7.70;98.90;;;;;;5074143;28;20464;-70
2022/01/14 02:16:59;;;;;;;18.47;13.67;;;7.70;98.80;;;;;;5055124;28;20431;-71
2022/01/14 02:19:28;;;;;;;16.17;12.80;;;7.60;99.20;;;;;;5071621;28;20427;-70
2022/01/14 02:22:13;;;;;;;20.43;13.63;;;7.60;99.50;;;;;;5073014;28;20399;-70
2022/01/14 02:27:14;;;;;;;21.90;13.80;;;7.50;99.80;;;;;;5073496;28;20934;-70
2022/01/14 02:29:40;;;;;;;19.60;14.27;;;7.50;99.90;;;;;;5072995;28;20463;-70
2022/01/14 02:32:07;;;;;;;19.17;14.03;;;7.50;99.90;;;;;;5073408;28;20874;-70
2022/01/14 02:34:33;;;;;;;20.97;14.00;;;7.50;99.90;;;;;;5072577;28;20423;-70
2022/01/14 02:36:59;;;;;;;24.27;16.23;;;7.40;99.90;;;;;;5073145;28;20597;-69
2022/01/14 02:39:25;;;;;;;20.67;13.70;;;7.30;99.90;;;;;;5070852;28;20426;-70
2022/01/14 02:41:52;;;;;;;17.90;13.63;;;7.40;99.90;;;;;;5072606;28;20258;-70
2022/01/14 02:44:25;;;;;;;20.00;14.63;;;7.40;99.90;;;;;;5056283;28;20701;-77
2022/01/14 02:46:54;;;;;;;18.67;15.60;;;7.40;99.90;;;;;;5052906;28;20919;-70
2022/01/14 02:49:21;;;;;;;19.53;14.63;;;7.40;99.90;;;;;;5052186;28;20459;-75
2022/01/14 02:51:47;;;;;;;23.83;15.50;;;7.40;99.90;;;;;;5052818;28;20630;-70
2022/01/14 02:54:16;;;;;;;21.03;13.70;;;7.40;99.90;;;;;;5053057;28;20412;-69
2022/01/14 02:56:45;;;;;;;20.00;14.33;;;7.50;99.90;;;;;;5052318;28;20184;-69
2022/01/14 02:59:12;;;;;;;19.97;15.20;;;7.50;99.90;;;;;;5053061;28;20407;-69
2022/01/14 03:01:40;;;;;;;21.13;15.00;;;7.40;99.90;;;;;;5052130;28;20545;-70
2022/01/14 03:04:07;;;;;;;26.40;15.27;;;7.30;99.90;;;;;;5052539;28;20420;-70
2022/01/14 03:06:33;;;;;;;17.60;14.43;;;7.30;99.90;;;;;;5034564;28;20416;-70
2022/01/14 03:09:00;;;;;;;18.23;14.00;;;7.30;99.90;;;;;;5052845;28;20460;-70
2022/01/14 03:11:26;;;;;;;19.27;14.40;;;7.30;99.90;;;;;;5051938;28;20436;-70
2022/01/14 03:13:52;;;;;;;22.97;15.57;;;7.20;99.90;;;;;;5052473;28;20425;-70
2022/01/14 03:16:20;;;;;;;21.53;14.50;;;7.20;99.90;;;;;;5052224;28;20192;-78
2022/01/14 03:18:50;;;;;;;16.77;13.87;;;7.10;99.90;;;;;;5052662;28;20898;-69
2022/01/14 03:21:24;;;;;;;20.50;15.03;;;7.10;99.90;;;;;;5052130;28;20407;-69
2022/01/14 03:24:02;;;;;;;21.23;14.83;;;7.20;99.90;;;;;;5035086;28;20423;-70
2022/01/14 03:26:28;;;;;;;19.40;14.07;;;7.10;99.90;;;;;;5052159;28;20430;-70
2022/01/14 03:28:53;;;;;;;19.43;13.43;;;7.00;99.80;;;;;;5052709;28;20540;-71
2022/01/14 03:31:19;;;;;;;18.80;13.77;;;7.00;99.50;;;;;;5051532;28;20427;-78
2022/01/14 03:33:45;;;;;;;21.00;14.40;;;7.00;99.40;;;;;;5052081;28;20209;-69
2022/01/14 03:36:12;;;;;;;18.87;13.90;;;7.00;99.50;;;;;;5052384;28;20275;-69
2022/01/14 03:38:38;;;;;;;19.60;14.67;;;6.90;99.60;;;;;;5051244;28;20409;-70
2022/01/14 03:41:04;;;;;;;19.60;15.40;;;6.50;99.40;;;;;;5051820;28;20508;-70
2022/01/14 03:43:31;;;;;;;18.00;13.70;;;6.80;99.90;;;;;;5049129;28;21011;-70
2022/01/14 03:45:57;;;;;;;20.63;16.20;;;6.80;99.90;;;;;;5072400;28;20943;-70
2022/01/14 03:48:23;;;;;;;20.87;14.57;;;6.90;99.90;;;;;;5071200;28;20429;-79
2022/01/14 03:50:49;;;;;;;20.83;14.03;;;6.90;99.90;;;;;;5072252;28;20767;-70
2022/01/14 03:53:15;;;;;;;18.40;14.20;;;6.90;99.90;;;;;;5071136;28;20465;-70
2022/01/14 03:55:42;;;;;;;19.13;14.37;;;6.50;99.90;;;;;;5071424;28;20431;-70
2022/01/14 03:58:09;;;;;;;21.67;15.40;;;6.90;99.90;;;;;;5071698;28;20258;-69
2022/01/14 04:00:35;;;;;;;20.30;15.07;;;6.90;99.90;;;;;;5070886;28;20504;-70
2022/01/14 04:03:02;;;;;;;23.20;15.20;;;6.90;99.90;;;;;;5072467;28;20401;-70
2022/01/14 04:05:28;;;;;;;18.53;13.30;;;6.80;99.80;;;;;;5071880;28;20821;-69
2022/01/14 04:07:53;;;;;;;18.10;14.57;;;6.80;99.60;;;;;;5071601;28;20401;-69
2022/01/14 04:10:21;;;;;;;19.63;15.10;;;6.70;99.20;;;;;;5071768;28;20235;-70
2022/01/14 04:12:56;;;;;;;20.73;14.07;;;6.80;99.50;;;;;;5060405;28;20234;-70
2022/01/14 04:15:37;;;;;;;20.07;14.23;;;6.70;99.60;;;;;;5052004;28;20754;-79
2022/01/14 04:18:05;;;;;;;19.33;14.73;;;6.70;99.50;;;;;;5050895;28;20410;-69
2022/01/14 04:20:32;;;;;;;18.97;14.30;;;6.70;99.20;;;;;;5051017;28;20405;-70
2022/01/14 04:22:58;;;;;;;20.73;14.07;;;6.60;99.00;;;;;;5051885;28;20410;-69
2022/01/14 04:25:24;;;;;;;22.70;14.73;;;6.10;98.90;;;;;;5062132;28;20474;-79
2022/01/14 04:27:50;;;;;;;20.50;14.77;;;6.60;99.20;;;;;;5071715;28;20391;-69
2022/01/14 04:30:16;;;;;;;17.90;14.70;;;6.50;99.60;;;;;;5071712;28;20454;-69
2022/01/14 04:32:42;;;;;;;19.17;15.30;;;6.20;99.70;;;;;;5070937;28;20445;-69
2022/01/14 04:35:09;;;;;;;23.30;14.53;;;6.50;99.80;;;;;;5074226;28;20806;-69
2022/01/14 04:37:35;;;;;;;22.23;14.60;;;6.40;99.90;;;;;;5074861;28;20523;-69
2022/01/14 04:40:01;;;;;;;19.70;14.40;;;6.40;99.90;;;;;;5075173;28;20515;-69
2022/01/14 04:42:28;;;;;;;22.37;13.70;;;6.40;99.80;;;;;;5073379;28;20946;-71
2022/01/14 04:44:55;;;;;;;17.90;13.57;;;6.40;99.70;;;;;;5055358;28;20492;-69
2022/01/14 04:50:18;;;;;;;16.60;13.23;;;6.40;99.80;;;;;;5033782;28;20973;-69
2022/01/14 04:52:46;;;;;;;17.60;14.30;;;6.20;99.80;;;;;;5036657;28;20978;-69
2022/01/14 04:55:14;;;;;;;16.43;14.20;;;6.40;99.90;;;;;;5055318;28;20463;-70
2022/01/14 04:57:40;;;;;;;20.93;13.60;;;6.40;99.90;;;;;;5020074;28;20424;-70
2022/01/14 05:00:12;;;;;;;20.00;13.30;;;6.40;99.90;;;;;;5054909;28;20866;-70
2022/01/14 05:02:38;;;;;;;20.50;14.63;;;6.40;99.80;;;;;;5054648;28;20426;-70
2022/01/14 05:05:05;;;;;;;18.07;13.27;;;6.50;99.80;;;;;;5054417;28;20409;-70
2022/01/14 05:07:31;;;;;;;16.40;13.00;;;6.50;99.90;;;;;;5054496;28;20210;-70
2022/01/14 05:12:44;;;;;;;23.30;14.70;;;6.50;99.90;;;;;;5022694;28;20488;-70
2022/01/14 05:15:11;;;;;;;18.70;14.57;;;6.60;99.90;;;;;;5054901;28;20396;-69
2022/01/14 05:17:37;;;;;;;18.10;14.17;;;6.70;99.90;;;;;;5054108;28;20464;-70
2022/01/14 05:20:04;;;;;;;22.00;14.30;;;6.80;99.90;;;;;;5036802;28;20430;-70
2022/01/14 05:22:30;;;;;;;16.70;13.70;;;6.70;99.90;;;;;;5053974;28;20463;-70
2022/01/14 05:24:56;;;;;;;19.30;13.90;;;6.50;99.90;;;;;;5036627;28;20425;-69
2022/01/14 05:27:22;;;;;;;20.87;13.80;;;6.80;99.90;;;;;;5036620;28;20455;-70
2022/01/14 05:29:48;;;;;;;20.20;14.53;;;6.80;99.80;;;;;;5053680;28;20502;-69
2022/01/14 05:32:15;;;;;;;18.53;13.67;;;6.80;99.90;;;;;;5054300;28;20544;-70
2022/01/14 05:34:42;;;;;;;20.00;14.30;;;6.80;99.90;;;;;;5053521;28;20410;-70
2022/01/14 05:37:08;;;;;;;19.87;14.37;;;6.80;99.90;;;;;;5036554;28;20435;-70
2022/01/14 05:39:35;;;;;;;20.00;14.77;;;6.80;99.90;;;;;;5052331;28;20914;-70
2022/01/14 05:42:00;;;;;;;21.23;14.80;;;6.80;99.90;;;;;;5036487;28;20422;-69
2022/01/14 05:44:30;;;;;;;17.20;13.60;;;6.80;99.90;;;;;;5053815;28;20801;-78
2022/01/14 05:46:57;;;;;;;18.60;14.83;;;6.80;99.80;;;;;;5054079;28;20881;-70
2022/01/14 05:49:23;;;;;;;24.77;15.47;;;6.50;99.70;;;;;;5036335;28;20461;-69
2022/01/14 05:51:50;;;;;;;18.43;14.10;;;6.80;99.60;;;;;;5053177;28;20900;-70
2022/01/14 05:54:17;;;;;;;19.03;15.00;;;6.70;99.40;;;;;;5053544;28;20536;-70
2022/01/14 05:56:43;;;;;;;21.03;14.80;;;6.70;99.30;;;;;;5053302;28;20410;-70
2022/01/14 05:59:15;;;;;;;23.43;15.77;;;6.70;99.20;;;;;;5036091;28;20432;-70
2022/01/14 06:01:41;;;;;;;19.57;15.60;;;6.70;99.30;;;;;;5053297;28;20426;-70
2022/01/14 06:04:07;;;;;;;21.87;15.40;;;6.70;99.50;;;;;;5053934;28;20454;-70
2022/01/14 06:06:34;;;;;;;21.80;15.60;;;6.70;99.30;;;;;;5018703;28;20423;-71
2022/01/14 06:09:01;;;;;;;18.43;15.47;;;6.60;99.40;;;;;;5036016;28;20466;-70
2022/01/14 06:11:27;;;;;;;21.67;16.77;;;6.60;99.30;;;;;;5053617;28;20851;-70
2022/01/14 06:13:53;;;;;;;21.10;16.07;;;6.60;99.20;;;;;;5035367;28;20443;-70
2022/01/14 06:16:19;;;;;;;19.00;15.43;;;6.60;98.80;;;;;;5035711;28;20410;-70
2022/01/14 06:18:45;;;;;;;24.70;15.47;;;6.50;98.80;;;;;;5052860;28;20481;-70
2022/01/14 06:21:12;;;;;;;19.27;15.10;;;6.40;98.70;;;;;;5035851;28;20464;-70
2022/01/14 06:23:37;;;;;;;20.10;15.90;;;6.40;99.10;;;;;;5052802;28;20628;-70
2022/01/14 06:26:03;;;;;;;23.03;16.43;;;6.40;99.70;;;;;;5052923;28;20516;-70
2022/01/14 06:28:29;;;;;;;23.70;17.10;;;6.50;99.90;;;;;;5053409;28;20208;-78
2022/01/14 06:30:55;;;;;;;19.50;15.47;;;6.30;99.90;;;;;;5051252;28;20454;-70
2022/01/14 06:33:21;;;;;;;25.03;15.70;;;6.50;99.90;;;;;;5049360;28;20917;-70
2022/01/14 06:35:47;;;;;;;21.60;14.50;;;6.70;99.90;;;;;;5038173;28;20230;-70
2022/01/14 06:38:12;;;;;;;20.80;14.97;;;6.70;99.80;;;;;;5018894;28;20886;-70
2022/01/14 06:40:38;;;;;;;19.20;14.60;;;6.50;99.10;;;;;;5041034;28;20485;-70
2022/01/14 06:43:05;;;;;;;24.03;15.93;;;6.50;98.90;;;;;;5047644;28;20641;-70
2022/01/14 06:45:32;;;;;;;23.77;16.17;;;6.50;99.20;;;;;;5034001;28;20450;-78
2022/01/14 06:47:58;;;;;;;22.70;16.63;;;6.50;99.90;;;;;;5034681;28;20489;-70
2022/01/14 06:50:26;;;;;;;22.87;16.70;;;6.30;99.90;;;;;;5003681;28;20564;-70
2022/01/14 06:52:52;;;;;;;26.33;16.47;;;6.50;99.90;;;;;;5032078;28;20438;-70
2022/01/14 06:55:18;;;;;;;22.47;16.20;;;6.60;99.90;;;;;;5022154;28;21015;-69
2022/01/14 06:57:44;;;;;;;21.37;16.23;;;6.60;99.90;;;;;;5052398;28;20415;-70
2022/01/14 07:00:13;;;;;;;19.17;15.23;;;6.70;99.90;;;;;;5053021;28;20476;-70
2022/01/14 07:02:39;;;;;;;18.77;15.23;;;6.70;99.90;;;;;;5052442;28;20182;-70
2022/01/14 07:05:06;;;;;;;23.77;16.30;;;6.70;99.90;;;;;;5053171;28;20417;-69
2022/01/14 07:07:32;;;;;;;21.47;16.50;;;6.70;99.90;;;;;;5037373;28;20445;-70
2022/01/14 07:09:58;;;;;;;21.57;15.63;;;6.70;99.60;;;;;;5034771;28;20465;-70
2022/01/14 07:12:29;;;;;;;19.10;15.40;;;6.70;99.50;;;;;;5052425;28;20441;-69
2022/01/14 07:14:56;;;;;;;19.63;15.10;;;6.70;99.50;;;;;;5051166;28;20416;-69
2022/01/14 07:17:23;;;;;;;23.17;14.80;;;6.60;99.20;;;;;;5045019;28;20496;-69
2022/01/14 07:19:52;;;;;;;21.10;15.70;;;6.60;98.90;;;;;;5037084;28;20465;-70
2022/01/14 07:22:19;;;;;;;20.17;15.27;;;6.70;99.10;;;;;;5035147;28;20536;-70
2022/01/14 07:24:45;;;;;;;20.47;14.97;;;6.50;99.40;;;;;;5052218;28;20380;-71
2022/01/14 07:27:11;;;;;;;23.23;16.57;;;6.50;99.80;;;;;;5033371;28;20416;-71
2022/01/14 07:29:36;;;;;;;20.03;16.43;;;6.40;99.90;;;;;;5029501;28;20889;-70
2022/01/14 07:32:03;;;;;;;19.67;15.97;;;6.40;99.90;;;;;;5032691;28;20495;-70
2022/01/14 07:34:29;;;;;;;21.03;14.67;;;6.40;99.50;;;;;;5032918;28;20179;-70
2022/01/14 07:36:54;;;;;;;22.03;16.63;;;6.30;99.20;;;;;;5032256;28;20799;-70
2022/01/14 07:39:20;;;;;;;22.17;16.57;;;6.30;99.40;;;;;;5041037;28;20417;-70
2022/01/14 07:41:47;;;;;;;19.70;15.03;;;6.20;99.60;;;;;;5051706;28;20186;-71
2022/01/14 07:44:13;;;;;;;19.00;14.20;;;6.20;99.90;;;;;;5052658;28;20465;-71
2022/01/14 07:46:39;;;;;;;20.47;15.30;;;6.20;99.90;;;;;;5034439;28;20821;-70
2022/01/14 07:49:04;;;;;;;18.43;14.53;;;6.40;99.90;;;;;;5052920;28;20551;-71
2022/01/14 07:51:30;;;;;;;19.63;15.63;;;6.20;99.90;;;;;;5052245;28;20258;-70
2022/01/14 07:54:04;;;;;;;9.73;8.73;;;6.20;99.90;;;;;;5051737;28;20191;-69
2022/01/14 07:56:32;;;;;;;14.77;11.57;;;9.00;99.90;;;;;;5034919;28;20291;-70
2022/01/14 07:58:57;;;;;;;15.73;12.27;;;10.80;99.90;;;;;;5051914;28;20740;-69
2022/01/14 08:01:23;;;;;;;19.43;15.40;;;12.30;95.20;;;;;;5034108;28;20452;-71
2022/01/14 08:03:49;;;;;;;18.33;15.40;;;12.20;88.30;;;;;;5050487;28;20203;-71
2022/01/14 08:06:15;;;;;;;19.50;16.20;;;11.80;84.80;;;;;;5051733;28;20218;-71
2022/01/14 08:08:40;;;;;;;20.50;15.30;;;11.30;84.40;;;;;;5054731;28;20205;-72
2022/01/14 08:11:06;;;;;;;17.40;15.20;;;10.80;85.00;;;;;;5056096;28;20190;-71
2022/01/14 08:13:32;;;;;;;18.70;15.70;;;10.40;86.40;;;;;;5037306;28;20432;-71
2022/01/14 08:15:59;;;;;;;18.90;14.80;;;9.90;89.80;;;;;;5037854;28;20186;-71
2022/01/14 08:18:25;;;;;;;19.77;15.37;;;9.60;91.20;;;;;;5055860;28;20430;-71
2022/01/14 08:20:51;;;;;;;19.57;15.30;;;9.20;92.00;;;;;;5026297;28;20492;-71
2022/01/14 08:23:19;;;;;;;19.80;15.40;;;8.90;92.70;;;;;;5006762;28;20273;-71
2022/01/14 08:25:45;;;;;;;20.33;16.27;;;8.60;93.40;;;;;;5040025;28;20503;-71
2022/01/14 08:28:11;;;;;;;19.33;15.53;;;8.30;94.20;;;;;;5043887;28;20427;-70
2022/01/14 08:30:37;;;;;;;19.33;15.60;;;8.10;95.00;;;;;;5055366;28;20459;-81
2022/01/14 08:33:03;;;;;;;17.60;15.50;;;7.90;95.70;;;;;;5037954;28;20181;-70
2022/01/14 08:35:29;;;;;;;22.70;17.50;;;7.80;96.70;;;;;;5055446;28;20183;-71
2022/01/14 08:37:55;;;;;;;21.23;16.50;;;7.60;97.60;;;;;;5054375;28;20219;-71
2022/01/14 08:40:21;;;;;;;18.80;15.60;;;7.60;98.30;;;;;;5053283;28;20461;-71
2022/01/14 08:42:52;;;;;;;22.50;17.20;;;7.40;98.50;;;;;;5029239;28;20510;-70
2022/01/14 08:45:21;;;;;;;20.40;15.83;;;7.30;98.80;;;;;;5057772;28;20945;-70
2022/01/14 08:47:52;;;;;;;21.87;16.20;;;7.20;99.40;;;;;;5054493;28;20414;-70
2022/01/14 08:50:20;;;;;;;23.50;16.73;;;7.20;99.80;;;;;;5058769;28;20969;-71
2022/01/14 08:52:46;;;;;;;23.40;17.13;;;7.10;99.90;;;;;;5055374;28;20461;-71
2022/01/14 08:55:15;;;;;;;23.50;17.47;;;7.10;99.90;;;;;;5054815;28;20450;-71
2022/01/14 08:57:41;;;;;;;22.00;16.97;;;7.00;99.90;;;;;;5069836;28;20187;-80
2022/01/14 09:00:07;;;;;;;24.90;17.47;;;7.10;99.90;;;;;;5075557;28;20484;-71
2022/01/14 09:02:36;;;;;;;21.57;17.90;;;7.10;99.90;;;;;;5073237;28;20465;-71
2022/01/14 09:05:02;;;;;;;26.67;19.10;;;7.10;99.90;;;;;;5072911;28;20904;-71
2022/01/14 09:07:28;;;;;;;22.70;17.43;;;7.20;99.90;;;;;;5074551;28;20512;-71
2022/01/14 09:09:55;;;;;;;27.57;18.80;;;7.50;99.90;;;;;;5074077;28;20455;-70
2022/01/14 09:12:21;;;;;;;25.20;17.37;;;8.10;99.90;;;;;;5074630;28;20430;-71
2022/01/14 09:14:47;;;;;;;27.23;20.33;;;8.30;99.50;;;;;;5074048;28;20426;-71
2022/01/14 09:17:13;;;;;;;32.00;20.27;;;8.30;99.10;;;;;;5075129;28;20884;-71
2022/01/14 09:19:42;;;;;;;25.20;18.13;;;8.20;99.10;;;;;;5073234;28;20902;-79
2022/01/14 09:22:08;;;;;;;33.50;18.47;;;8.20;99.20;;;;;;5074526;28;20431;-71
2022/01/14 09:24:35;;;;;;;25.77;18.20;;;8.10;99.40;;;;;;5074511;28;20410;-71
2022/01/14 09:27:01;;;;;;;25.27;18.83;;;8.00;99.70;;;;;;5071344;28;20428;-71
2022/01/14 09:29:26;;;;;;;23.30;18.60;;;7.80;99.90;;;;;;5074546;28;20473;-71
2022/01/14 09:31:52;;;;;;;23.40;18.60;;;7.70;99.90;;;;;;5072426;28;20971;-71
2022/01/14 09:34:18;;;;;;;24.07;18.43;;;7.50;99.90;;;;;;5074714;28;20624;-71
2022/01/14 09:36:45;;;;;;;24.87;19.20;;;7.30;99.90;;;;;;5073598;28;20644;-71
2022/01/14 09:39:11;;;;;;;31.27;20.30;;;7.30;99.90;;;;;;5074512;28;20812;-71
2022/01/14 09:41:37;;;;;;;31.60;21.07;;;7.10;99.90;;;;;;5071744;28;20425;-71
2022/01/14 09:44:03;;;;;;;36.30;23.77;;;7.00;99.90;;;;;;5058411;28;20469;-71
2022/01/14 09:46:29;;;;;;;38.63;23.97;;;6.80;99.90;;;;;;5054217;28;20427;-71
2022/01/14 09:48:55;;;;;;;36.63;22.23;;;6.80;99.90;;;;;;5052993;28;20818;-71
2022/01/14 09:51:22;;;;;;;42.43;25.33;;;6.70;99.90;;;;;;5044267;28;20175;-71
2022/01/14 09:53:48;;;;;;;38.37;23.07;;;6.70;99.90;;;;;;5048658;28;20187;-71
2022/01/14 09:56:16;;;;;;;35.60;22.77;;;6.70;99.90;;;;;;5045102;28;20422;-71
2022/01/14 09:58:46;;;;;;;37.97;22.63;;;6.80;99.90;;;;;;5036601;28;20393;-71
2022/01/14 10:01:19;;;;;;;37.00;22.00;;;6.80;99.90;;;;;;5042386;28;20439;-72
2022/01/14 10:03:51;;;;;;;35.70;21.07;;;6.70;99.90;;;;;;5015632;28;20453;-74
2022/01/14 10:06:35;;;;;;;36.00;20.33;;;6.70;99.90;;;;;;5033481;28;20442;-71
2022/01/14 10:09:09;;;;;;;38.50;22.40;;;6.50;99.90;;;;;;5041476;28;20505;-70
2022/01/14 10:11:36;;;;;;;42.90;23.00;;;6.70;99.90;;;;;;5041536;28;20393;-71
2022/01/14 10:14:15;;;;;;;40.97;23.90;;;6.80;99.90;;;;;;5033367;28;20779;-70
2022/01/14 10:16:41;;;;;;;39.13;23.53;;;6.70;99.90;;;;;;5041110;28;20441;-76
2022/01/14 10:19:29;;;;;;;35.73;21.23;;;6.70;99.90;;;;;;5030989;28;20517;-71
2022/01/14 10:21:56;;;;;;;39.90;22.80;;;6.70;99.90;;;;;;5033764;28;20419;-71
2022/01/14 10:24:26;;;;;;;38.77;23.27;;;6.70;99.90;;;;;;5034102;28;20408;-70
2022/01/14 10:26:58;;;;;;;39.23;21.87;;;6.80;99.90;;;;;;5027865;28;20454;-70
2022/01/14 10:29:29;;;;;;;37.83;20.87;;;6.70;99.90;;;;;;5033887;28;20469;-71
2022/01/14 10:31:56;;;;;;;39.90;20.87;;;6.70;99.90;;;;;;5033406;28;20509;-71
2022/01/14 10:34:24;;;;;;;38.83;22.50;;;6.80;99.90;;;;;;5050485;28;20475;-71
2022/01/14 10:37:07;;;;;;;46.03;25.93;;;6.80;99.90;;;;;;5052114;28;20419;-71
2022/01/14 10:39:32;;;;;;;36.63;21.00;;;6.80;99.90;;;;;;5038825;28;20781;-70
2022/01/14 10:41:58;;;;;;;34.17;20.30;;;6.80;99.90;;;;;;5036079;28;20430;-70
2022/01/14 10:44:27;;;;;;;33.87;20.47;;;6.50;99.90;;;;;;5046542;28;20281;-70
2022/01/14 10:47:18;;;;;;;37.47;21.53;;;6.80;99.90;;;;;;5072841;28;20171;-70
2022/01/14 10:49:46;;;;;;;31.83;20.43;;;7.00;99.90;;;;;;5053146;28;20516;-71
2022/01/14 10:52:18;;;;;;;35.60;19.23;;;6.80;99.90;;;;;;5053571;28;20416;-71
2022/01/14 10:54:49;;;;;;;31.53;18.57;;;6.40;99.90;;;;;;5064786;28;20775;-73
2022/01/14 10:57:24;;;;;;;34.70;18.50;;;7.20;99.90;;;;;;5055364;28;20419;-72
2022/01/14 10:59:52;;;;;;;36.77;18.87;;;7.80;99.90;;;;;;5072703;28;20451;-72
2022/01/14 11:02:42;;;;;;;29.43;18.27;;;8.40;99.90;;;;;;5056634;28;20416;-72
2022/01/14 11:05:10;;;;;;;33.47;19.30;;;9.00;99.90;;;;;;5064115;28;20411;-72
2022/01/14 11:07:37;;;;;;;26.87;17.73;;;9.40;99.90;;;;;;5073099;28;20446;-70
2022/01/14 11:10:22;;;;;;;28.17;18.10;;;9.70;99.90;;;;;;5071800;28;20506;-72
2022/01/14 11:12:48;;;;;;;25.63;17.23;;;10.10;99.70;;;;;;5071361;28;20515;-72
2022/01/14 11:15:15;;;;;;;29.90;20.90;;;10.40;98.80;;;;;;5070864;28;20807;-70
2022/01/14 11:17:45;;;;;;;26.70;18.87;;;10.60;97.70;;;;;;5068877;28;20586;-70
2022/01/14 11:20:12;;;;;;;25.40;17.17;;;10.40;96.00;;;;;;5050606;28;20556;-71
2022/01/14 11:25:22;;;;;;;25.70;17.27;;;9.80;97.20;;;;;;5057450;28;20802;-71
2022/01/14 11:27:59;;;;;;;27.57;17.10;;;9.40;97.80;;;;;;5057865;28;20462;-77
2022/01/14 11:30:37;;;;;;;26.77;18.00;;;9.20;98.60;;;;;;5067399;28;20496;-73
2022/01/14 11:33:04;;;;;;;24.60;16.63;;;8.90;99.50;;;;;;5064519;28;20508;-73
2022/01/14 11:35:32;;;;;;;29.50;17.70;;;8.70;99.90;;;;;;5071222;28;20416;-72
2022/01/14 11:37:59;;;;;;;25.63;16.30;;;8.60;99.90;;;;;;5060963;28;20469;-72
2022/01/14 11:40:25;;;;;;;27.70;15.73;;;8.40;99.90;;;;;;5059633;28;20525;-71
2022/01/14 11:42:59;;;;;;;28.07;17.40;;;8.30;99.90;;;;;;5048532;28;20473;-72
2022/01/14 11:45:47;;;;;;;28.00;17.73;;;8.20;99.90;;;;;;5020398;28;20473;-71
2022/01/14 11:48:36;;;;;;;24.17;16.70;;;8.10;99.90;;;;;;5024909;28;20439;-71
2022/01/14 11:51:07;;;;;;;25.10;16.27;;;8.10;99.90;;;;;;5031136;28;20417;-72
2022/01/14 11:53:36;;;;;;;30.83;18.63;;;8.00;99.90;;;;;;5034578;28;20416;-71
2022/01/14 11:56:03;;;;;;;25.20;16.57;;;7.90;99.90;;;;;;5049523;28;20744;-72
2022/01/14 11:58:29;;;;;;;27.80;16.50;;;7.90;99.90;;;;;;5052764;28;20408;-71
2022/01/14 12:00:55;;;;;;;28.70;18.20;;;7.90;99.90;;;;;;5017365;28;20416;-71
2022/01/14 12:03:25;;;;;;;29.20;17.30;;;7.80;99.90;;;;;;5034562;28;20911;-70
2022/01/14 12:05:54;;;;;;;30.57;18.73;;;7.80;99.90;;;;;;5033201;28;20412;-71
2022/01/14 12:08:40;;;;;;;30.80;17.47;;;7.80;99.90;;;;;;5039067;28;20413;-71
2022/01/14 12:11:05;;;;;;;24.80;17.53;;;7.70;99.90;;;;;;5031242;28;21043;-71
2022/01/14 12:16:03;;;;;;;29.83;17.93;;;7.40;99.90;;;;;;5045363;28;20255;-71
2022/01/14 12:18:57;;;;;;;27.20;17.70;;;7.40;99.90;;;;;;5032907;28;20222;-73
2022/01/14 12:21:41;;;;;;;24.40;17.50;;;7.40;99.90;;;;;;5046305;28;20438;-71
2022/01/14 12:24:18;;;;;;;29.10;20.03;;;7.40;99.90;;;;;;5017518;28;20813;-71
2022/01/14 12:27:10;;;;;;;29.00;17.63;;;7.50;99.90;;;;;;5045179;28;20466;-72
2022/01/14 12:29:44;;;;;;;25.50;18.03;;;7.50;99.90;;;;;;5036193;28;20467;-72
2022/01/14 12:32:29;;;;;;;24.47;16.87;;;7.40;99.90;;;;;;5051713;28;20406;-71
2022/01/14 12:34:54;;;;;;;27.67;17.47;;;7.40;99.90;;;;;;5041231;28;20432;-72
2022/01/14 12:37:26;;;;;;;30.30;19.80;;;7.40;99.90;;;;;;5017538;28;20458;-71
2022/01/14 12:39:53;;;;;;;28.60;18.67;;;7.50;99.90;;;;;;5051159;28;20173;-71
2022/01/14 12:42:21;;;;;;;33.57;19.33;;;7.50;99.90;;;;;;5051379;28;20411;-72
2022/01/14 12:44:51;;;;;;;32.00;20.40;;;7.50;99.90;;;;;;5032945;28;20514;-81
2022/01/14 12:47:23;;;;;;;34.73;20.77;;;7.50;99.90;;;;;;5034145;28;20428;-72
2022/01/14 12:49:50;;;;;;;31.50;18.33;;;7.50;99.90;;;;;;5032440;28;20456;-70
2022/01/14 12:52:29;;;;;;;28.37;17.17;;;7.50;99.90;;;;;;5050444;28;20395;-72
2022/01/14 12:54:55;;;;;;;26.87;17.73;;;7.70;99.90;;;;;;5035009;28;20820;-70
2022/01/14 12:57:24;;;;;;;26.93;18.03;;;7.60;99.90;;;;;;5042513;28;20516;-71
2022/01/14 12:59:52;;;;;;;26.07;18.80;;;7.60;99.90;;;;;;5055199;28;20188;-71
2022/01/14 13:02:19;;;;;;;32.47;18.97;;;7.60;99.90;;;;;;5035483;28;20924;-71
2022/01/14 13:04:45;;;;;;;29.07;18.80;;;7.60;99.90;;;;;;5017790;28;20433;-70
2022/01/14 13:07:11;;;;;;;32.53;20.20;;;7.70;99.90;;;;;;5017081;28;20524;-71